createdAt,value
2022-12-15T00:02:15.597Z,-5.97
2022-12-15T00:05:01.035Z,-5.77
2022-12-15T00:07:46.095Z,-5.88
2022-12-15T00:10:31.206Z,-5.81
2022-12-15T00:13:16.329Z,-5.77
2022-12-15T00:16:01.568Z,-5.91
2022-12-15T00:18:46.666Z,-5.78
2022-12-15T00:21:31.741Z,-5.79
2022-12-15T00:24:16.879Z,-5.99
2022-12-15T00:27:02.265Z,-5.82
2022-12-15T00:29:47.277Z,-5.84
2022-12-15T00:32:32.531Z,-6.24
2022-12-15T00:35:17.467Z,-5.84
2022-12-15T00:38:02.369Z,-5.94
2022-12-15T00:40:28.901Z,-5.89
2022-12-15T00:42:56.010Z,-5.82
2022-12-15T00:45:42.464Z,-6.29
2022-12-15T00:48:09.520Z,-5.94
2022-12-15T00:50:54.405Z,-5.86
2022-12-15T00:53:41.485Z,-5.84
2022-12-15T00:56:28.198Z,-5.84
2022-12-15T00:59:13.657Z,-5.82
2022-12-15T01:01:59.236Z,-5.89
2022-12-15T01:04:44.556Z,-5.90
2022-12-15T01:07:29.841Z,-5.82
2022-12-15T01:10:15.109Z,-5.76
2022-12-15T01:13:00.497Z,-5.86
2022-12-15T01:15:46.210Z,-5.89
2022-12-15T01:18:32.075Z,-5.73
2022-12-15T01:21:06.300Z,-5.82
2022-12-15T01:23:33.742Z,-5.78
2022-12-15T01:26:01.440Z,-5.76
2022-12-15T01:28:28.142Z,-6.03
2022-12-15T01:30:54.848Z,-5.68
2022-12-15T01:33:22.862Z,-5.73
2022-12-15T01:36:01.038Z,-5.69
2022-12-15T01:38:29.256Z,-5.67
2022-12-15T01:44:37.347Z,-5.78
2022-12-15T01:47:05.512Z,-5.82
2022-12-15T01:49:33.394Z,-5.65
2022-12-15T01:52:02.671Z,-5.69
2022-12-15T01:54:36.716Z,-5.74
2022-12-15T01:57:07.540Z,-5.84
2022-12-15T01:59:39.174Z,-5.63
2022-12-15T02:02:05.836Z,-5.80
2022-12-15T02:04:33.659Z,-5.72
2022-12-15T02:07:00.267Z,-5.67
2022-12-15T02:09:27.805Z,-5.59
2022-12-15T02:12:28.322Z,-5.60
2022-12-15T02:15:07.846Z,-5.62
2022-12-15T02:17:55.280Z,-5.67
2022-12-15T02:20:50.274Z,-5.63
2022-12-15T02:23:25.658Z,-5.63
2022-12-15T02:26:14.497Z,-5.61
2022-12-15T02:29:01.548Z,-5.58
2022-12-15T02:32:00.236Z,-5.58
2022-12-15T02:34:28.816Z,-5.47
2022-12-15T02:37:00.259Z,-5.52
2022-12-15T02:39:27.336Z,-5.51
2022-12-15T02:41:53.957Z,-5.52
2022-12-15T02:44:20.465Z,-5.52
2022-12-15T02:47:05.839Z,-5.52
2022-12-15T02:49:43.107Z,-5.57
2022-12-15T02:52:32.137Z,-5.57
2022-12-15T02:55:23.296Z,-5.55
2022-12-15T02:58:14.291Z,-5.57
2022-12-15T03:00:46.674Z,-5.64
2022-12-15T03:03:20.221Z,-5.63
2022-12-15T03:05:54.762Z,-5.67
2022-12-15T03:08:22.151Z,-5.58
2022-12-15T03:10:52.703Z,-5.56
2022-12-15T03:13:19.284Z,-5.50
2022-12-15T03:15:45.986Z,-5.51
2022-12-15T03:18:12.644Z,-5.51
2022-12-15T03:20:39.253Z,-5.47
2022-12-15T03:23:05.761Z,-5.45
2022-12-15T03:25:32.319Z,-5.49
2022-12-15T03:27:59.034Z,-5.58
2022-12-15T03:30:26.219Z,-5.54
2022-12-15T03:32:52.777Z,-5.48
2022-12-15T03:35:19.510Z,-5.53
2022-12-15T03:37:46.242Z,-5.50
2022-12-15T03:40:16.942Z,-5.49
2022-12-15T03:42:49.340Z,-5.51
2022-12-15T03:45:21.683Z,-5.51
2022-12-15T03:47:49.497Z,-5.55
2022-12-15T03:50:19.521Z,-5.49
2022-12-15T03:52:50.993Z,-5.54
2022-12-15T03:55:18.580Z,-5.50
2022-12-15T03:57:45.122Z,-5.53
2022-12-15T04:00:15.001Z,-5.61
2022-12-15T04:02:45.440Z,-5.56
2022-12-15T04:05:19.787Z,-5.56
2022-12-15T04:07:46.904Z,-5.57
2022-12-15T04:10:13.960Z,-5.55
2022-12-15T04:12:40.527Z,-5.66
2022-12-15T04:15:08.739Z,-5.59
2022-12-15T04:17:35.673Z,-5.63
2022-12-15T04:20:11.765Z,-5.51
2022-12-15T04:22:40.809Z,-5.56
2022-12-15T04:25:28.529Z,-5.55
2022-12-15T04:28:14.133Z,-5.60
2022-12-15T04:31:04.388Z,-5.52
2022-12-15T04:33:50.405Z,-5.52
2022-12-15T04:36:36.027Z,-5.58
2022-12-15T04:39:23.343Z,-5.54
2022-12-15T04:42:10.029Z,-5.56
2022-12-15T04:44:55.779Z,-5.56
2022-12-15T04:47:41.069Z,-5.55
2022-12-15T04:50:26.605Z,-5.52
2022-12-15T04:53:11.742Z,-5.58
2022-12-15T04:55:57.750Z,-5.59
2022-12-15T04:58:43.238Z,-5.61
2022-12-15T05:01:28.163Z,-5.57
2022-12-15T05:04:13.711Z,-5.67
2022-12-15T05:06:58.665Z,-5.55
2022-12-15T05:09:43.814Z,-5.56
2022-12-15T05:12:28.843Z,-5.58
2022-12-15T05:15:13.971Z,-5.56
2022-12-15T05:17:59.154Z,-5.57
2022-12-15T05:20:44.201Z,-5.61
2022-12-15T05:23:31.458Z,-5.61
2022-12-15T05:26:18.221Z,-5.59
2022-12-15T05:29:03.272Z,-5.52
2022-12-15T05:32:08.445Z,-5.50
2022-12-15T05:34:36.486Z,-5.49
2022-12-15T05:37:04.439Z,-5.49
2022-12-15T05:39:31.532Z,-5.53
2022-12-15T05:41:58.245Z,-5.51
2022-12-15T05:44:26.164Z,-5.50
2022-12-15T05:46:53.760Z,-5.54
2022-12-15T05:49:20.769Z,-5.57
2022-12-15T05:51:48.358Z,-5.63
2022-12-15T05:54:18.129Z,-5.64
2022-12-15T05:56:45.513Z,-5.64
2022-12-15T05:59:13.152Z,-5.61
2022-12-15T06:01:40.508Z,-5.63
2022-12-15T06:04:07.657Z,-5.64
2022-12-15T06:06:34.210Z,-5.67
2022-12-15T06:09:00.784Z,-5.78
2022-12-15T06:11:28.068Z,-5.65
2022-12-15T06:13:55.667Z,-5.71
2022-12-15T06:16:24.328Z,-5.69
2022-12-15T06:18:58.608Z,-5.67
2022-12-15T06:21:28.899Z,-5.69
2022-12-15T06:23:56.874Z,-5.70
2022-12-15T06:26:29.833Z,-5.74
2022-12-15T06:28:58.573Z,-5.70
2022-12-15T06:31:26.107Z,-5.74
2022-12-15T06:34:00.966Z,-5.63
2022-12-15T06:36:30.753Z,-5.59
2022-12-15T06:39:02.555Z,-5.63
2022-12-15T06:41:32.460Z,-5.56
2022-12-15T06:44:00.035Z,-5.52
2022-12-15T06:46:28.887Z,-5.54
2022-12-15T06:48:55.964Z,-5.52
2022-12-15T06:51:23.107Z,-5.48
2022-12-15T06:53:50.893Z,-5.48
2022-12-15T06:56:36.244Z,-5.48
2022-12-15T06:59:03.774Z,-5.44
2022-12-15T07:01:30.974Z,-5.46
2022-12-15T07:04:00.095Z,-5.47
2022-12-15T07:06:27.371Z,-5.51
2022-12-15T07:08:56.423Z,-5.48
2022-12-15T07:11:24.119Z,-5.46
2022-12-15T07:13:54.227Z,-5.48
2022-12-15T07:16:22.701Z,-5.51
2022-12-15T07:18:49.396Z,-5.48
2022-12-15T07:21:16.226Z,-5.45
2022-12-15T07:23:58.670Z,-5.39
2022-12-15T07:26:26.098Z,-5.46
2022-12-15T07:28:53.997Z,-5.47
2022-12-15T07:31:21.837Z,-5.38
2022-12-15T07:33:48.727Z,-5.28
2022-12-15T07:36:15.817Z,-5.27
2022-12-15T07:38:42.813Z,-5.27
2022-12-15T07:41:09.961Z,-5.22
2022-12-15T07:43:38.191Z,-5.15
2022-12-15T07:46:06.193Z,-5.20
2022-12-15T07:48:33.364Z,-5.18
2022-12-15T07:51:11.162Z,-5.22
2022-12-15T07:53:39.962Z,-5.17
2022-12-15T07:56:09.263Z,-5.13
2022-12-15T07:58:38.139Z,-5.16
2022-12-15T08:01:07.726Z,-5.11
2022-12-15T08:03:36.951Z,-5.07
2022-12-15T08:06:12.641Z,-5.05
2022-12-15T08:08:40.482Z,-5.01
2022-12-15T08:11:09.684Z,-5.05
2022-12-15T08:16:24.149Z,-4.93
2022-12-15T08:18:51.232Z,-4.82
2022-12-15T08:21:18.051Z,-4.81
2022-12-15T08:23:45.421Z,-4.84
2022-12-15T08:26:15.188Z,-4.80
2022-12-15T08:28:42.846Z,-4.80
2022-12-15T08:31:16.249Z,-4.77
2022-12-15T08:33:43.366Z,-4.77
2022-12-15T08:36:12.043Z,-4.73
2022-12-15T08:38:40.158Z,-4.67
2022-12-15T08:41:11.698Z,-4.64
2022-12-15T08:43:44.066Z,-4.64
2022-12-15T08:46:14.701Z,-4.46
2022-12-15T08:48:41.538Z,-4.38
2022-12-15T08:51:08.206Z,-4.35
2022-12-15T08:53:34.764Z,-4.21
2022-12-15T08:56:09.283Z,-4.18
2022-12-15T08:58:36.559Z,-4.11
2022-12-15T09:01:06.824Z,-4.06
2022-12-15T09:03:35.444Z,-3.95
2022-12-15T09:06:07.571Z,-3.99
2022-12-15T09:08:34.904Z,-3.90
2022-12-15T09:11:02.304Z,-3.77
2022-12-15T09:13:29.299Z,-3.77
2022-12-15T09:16:09.321Z,-3.65
2022-12-15T09:18:37.109Z,-3.59
2022-12-15T09:21:06.838Z,-3.35
2022-12-15T09:23:35.644Z,-3.29
2022-12-15T09:26:05.725Z,-3.21
2022-12-15T09:28:33.765Z,-3.13
2022-12-15T09:31:11.989Z,-3.24
2022-12-15T09:33:40.240Z,-2.77
2022-12-15T09:36:08.403Z,-2.67
2022-12-15T09:38:38.386Z,-2.75
2022-12-15T09:41:17.291Z,-2.44
2022-12-15T09:43:56.108Z,-2.61
2022-12-15T09:46:50.381Z,-2.57
2022-12-15T09:49:24.031Z,-2.42
2022-12-15T09:52:11.072Z,-2.25
2022-12-15T09:54:38.522Z,-2.07
2022-12-15T09:57:12.088Z,-2.03
2022-12-15T09:59:51.005Z,-2.10
2022-12-15T10:02:48.144Z,-2.00
2022-12-15T10:06:07.313Z,-1.86
2022-12-15T10:08:34.590Z,-1.87
2022-12-15T10:11:05.608Z,-1.85
2022-12-15T10:13:45.546Z,-1.97
2022-12-15T10:16:44.049Z,-2.02
2022-12-15T10:19:16.797Z,-1.89
2022-12-15T10:21:43.364Z,-1.81
2022-12-15T10:24:37.501Z,-1.68
2022-12-15T10:27:22.668Z,-1.51
2022-12-15T10:30:02.542Z,-1.41
2022-12-15T10:32:52.310Z,-1.49
2022-12-15T10:35:46.233Z,-1.28
2022-12-15T10:38:23.269Z,-1.35
2022-12-15T10:40:54.836Z,-1.42
2022-12-15T10:43:38.091Z,-1.19
2022-12-15T10:46:14.267Z,-1.13
2022-12-15T10:48:57.779Z,-1.14
2022-12-15T10:51:33.065Z,-1.07
2022-12-15T10:54:08.050Z,-1.08
2022-12-15T10:56:35.357Z,-1.10
2022-12-15T10:59:21.572Z,-1.15
2022-12-15T11:01:48.523Z,-1.21
2022-12-15T11:04:32.665Z,-1.15
2022-12-15T11:07:02.453Z,-1.15
2022-12-15T11:09:40.523Z,-1.01
2022-12-15T11:12:42.011Z,-0.94
2022-12-15T11:15:24.506Z,-0.88
2022-12-15T11:18:06.266Z,-0.82
2022-12-15T11:20:37.328Z,-0.79
2022-12-15T11:23:18.800Z,-0.74
2022-12-15T11:26:07.903Z,-0.78
2022-12-15T11:28:51.443Z,-0.73
2022-12-15T11:31:28.206Z,-0.67
2022-12-15T11:33:54.898Z,-0.66
2022-12-15T11:36:48.561Z,-0.57
2022-12-15T11:39:43.092Z,-0.45
2022-12-15T11:42:19.105Z,-0.45
2022-12-15T11:44:55.496Z,-0.53
2022-12-15T11:47:49.289Z,-0.45
2022-12-15T11:50:29.387Z,-0.44
2022-12-15T11:53:14.863Z,-0.43
2022-12-15T11:55:48.002Z,-0.48
2022-12-15T11:58:33.884Z,-0.45
2022-12-15T12:01:03.969Z,-0.39
2022-12-15T12:04:04.426Z,-0.24
2022-12-15T12:06:40.678Z,-0.10
2022-12-15T12:09:21.611Z,-0.07
2022-12-15T12:12:01.969Z,0.20
2022-12-15T12:14:31.968Z,0.41
2022-12-15T12:17:18.430Z,0.48
2022-12-15T12:19:52.260Z,0.46
2022-12-15T12:22:25.983Z,0.57
2022-12-15T12:25:03.862Z,0.58
2022-12-15T12:27:48.790Z,0.58
2022-12-15T12:30:20.842Z,0.70
2022-12-15T12:32:53.951Z,0.73
2022-12-15T12:35:51.196Z,0.81
2022-12-15T12:38:24.829Z,0.86
2022-12-15T12:41:13.774Z,0.87
2022-12-15T12:43:52.803Z,0.98
2022-12-15T12:46:40.539Z,0.88
2022-12-15T12:49:32.222Z,1.08
2022-12-15T12:52:03.530Z,1.13
2022-12-15T12:54:36.681Z,1.16
2022-12-15T12:57:12.511Z,1.09
2022-12-15T12:59:42.847Z,0.94
2022-12-15T13:02:15.592Z,0.80
2022-12-15T13:04:44.654Z,0.70
2022-12-15T13:07:32.516Z,0.56
2022-12-15T13:10:19.411Z,0.51
2022-12-15T13:12:54.447Z,0.49
2022-12-15T13:15:27.891Z,0.54
2022-12-15T13:18:15.747Z,0.54
2022-12-15T13:20:44.853Z,0.58
2022-12-15T13:23:21.969Z,0.58
2022-12-15T13:25:56.242Z,0.59
2022-12-15T13:28:35.453Z,0.67
2022-12-15T13:31:17.980Z,0.66
2022-12-15T13:33:51.019Z,0.61
2022-12-15T13:36:39.876Z,0.64
2022-12-15T13:39:32.073Z,0.62
2022-12-15T13:42:33.390Z,0.60
2022-12-15T13:44:52.703Z,0.59
2022-12-15T13:47:19.802Z,0.56
2022-12-15T13:50:03.898Z,0.51
2022-12-15T13:53:08.504Z,0.54
2022-12-15T13:55:38.221Z,0.47
2022-12-15T13:58:16.655Z,0.40
2022-12-15T14:00:57.467Z,0.46
2022-12-15T14:03:25.269Z,0.52
2022-12-15T14:05:58.740Z,0.42
2022-12-15T14:08:28.617Z,0.41
2022-12-15T14:11:16.556Z,0.40
2022-12-15T14:13:52.360Z,0.22
2022-12-15T14:16:23.175Z,0.38
2022-12-15T14:19:22.555Z,0.31
2022-12-15T14:21:55.514Z,0.40
2022-12-15T14:24:40.442Z,0.36
2022-12-15T14:27:07.535Z,0.36
2022-12-15T14:29:34.434Z,0.36
2022-12-15T14:32:01.731Z,0.28
2022-12-15T14:34:41.805Z,0.25
2022-12-15T14:37:15.852Z,0.23
2022-12-15T14:39:47.743Z,0.17
2022-12-15T14:42:24.971Z,0.13
2022-12-15T14:44:57.362Z,0.07
2022-12-15T14:48:13.576Z,0.04
2022-12-15T14:50:47.097Z,0.00
2022-12-15T14:53:17.711Z,-0.02
2022-12-15T14:55:44.538Z,-0.10
2022-12-15T14:58:32.305Z,-0.12
2022-12-15T15:01:00.265Z,-0.22
2022-12-15T15:03:27.837Z,-0.30
2022-12-15T15:06:01.911Z,-0.30
2022-12-15T15:08:32.858Z,-0.31
2022-12-15T15:11:24.191Z,-0.43
2022-12-15T15:13:56.131Z,-0.46
2022-12-15T15:16:23.560Z,-0.54
2022-12-15T15:18:52.292Z,-0.55
2022-12-15T15:21:24.107Z,-0.66
2022-12-15T15:24:10.739Z,-0.69
2022-12-15T15:26:38.402Z,-0.74
2022-12-15T15:29:38.515Z,-0.82
2022-12-15T15:32:25.561Z,-0.89
2022-12-15T15:34:52.727Z,-1.03
2022-12-15T15:37:22.983Z,-1.06
2022-12-15T15:39:55.807Z,-1.17
2022-12-15T15:42:32.474Z,-1.20
2022-12-15T15:44:59.352Z,-1.29
2022-12-15T15:47:26.840Z,-1.33
2022-12-15T15:49:56.174Z,-1.40
2022-12-15T15:52:23.621Z,-1.51
2022-12-15T15:54:52.785Z,-1.52
2022-12-15T15:57:19.902Z,-1.46
2022-12-15T15:59:47.093Z,-1.54
2022-12-15T16:02:15.166Z,-1.50
2022-12-15T16:04:43.562Z,-1.51
2022-12-15T16:07:27.441Z,-1.58
2022-12-15T16:09:55.038Z,-1.60
2022-12-15T16:12:44.425Z,-1.67
2022-12-15T16:15:17.991Z,-1.71
2022-12-15T16:17:45.245Z,-1.63
2022-12-15T16:20:13.838Z,-1.62
2022-12-15T16:22:43.510Z,-1.60
2022-12-15T16:25:18.611Z,-1.57
2022-12-15T16:27:45.277Z,-1.51
2022-12-15T16:30:17.180Z,-1.47
2022-12-15T16:32:44.752Z,-1.53
2022-12-15T16:35:12.575Z,-1.52
2022-12-15T16:37:46.398Z,-1.52
2022-12-15T16:40:15.540Z,-1.47
2022-12-15T16:42:42.979Z,-1.45
2022-12-15T16:45:18.387Z,-1.73
2022-12-15T16:47:45.540Z,-1.35
2022-12-15T16:50:17.028Z,-1.33
2022-12-15T16:52:46.104Z,-1.24
2022-12-15T16:55:22.800Z,-1.22
2022-12-15T16:57:49.933Z,-1.16
2022-12-15T17:00:23.109Z,-1.16
2022-12-15T17:02:49.964Z,-1.07
2022-12-15T17:05:17.311Z,-1.01
2022-12-15T17:07:48.403Z,-1.08
2022-12-15T17:10:21.266Z,-1.06
2022-12-15T17:12:48.061Z,-1.08
2022-12-15T17:15:17.735Z,-1.03
2022-12-15T17:17:44.283Z,-1.08
2022-12-15T17:20:29.083Z,-1.05
2022-12-15T17:23:04.836Z,-1.15
2022-12-15T17:26:17.169Z,-1.14
2022-12-15T17:28:29.902Z,-1.19
2022-12-15T17:30:57.589Z,-1.24
2022-12-15T17:33:30.223Z,-1.33
2022-12-15T17:36:04.061Z,-1.35
2022-12-15T17:38:30.830Z,-1.53
2022-12-15T17:40:57.444Z,-1.56
2022-12-15T17:43:33.662Z,-1.33
2022-12-15T17:46:02.194Z,-1.34
2022-12-15T17:48:28.810Z,-1.33
2022-12-15T17:50:55.676Z,-1.40
2022-12-15T17:53:24.014Z,-1.42
2022-12-15T17:55:52.516Z,-1.54
2022-12-15T17:58:22.167Z,-1.47
2022-12-15T18:00:51.836Z,-1.55
2022-12-15T18:03:19.772Z,-1.58
2022-12-15T18:05:51.653Z,-1.64
2022-12-15T18:08:24.842Z,-1.77
2022-12-15T18:10:56.430Z,-1.80
2022-12-15T18:13:26.043Z,-1.82
2022-12-15T18:15:54.396Z,-1.85
2022-12-15T18:18:23.000Z,-1.87
2022-12-15T18:20:50.805Z,-1.89
2022-12-15T18:23:31.021Z,-1.93
2022-12-15T18:26:02.896Z,-1.96
2022-12-15T18:28:32.918Z,-1.97
2022-12-15T18:31:22.667Z,-2.04
2022-12-15T18:33:50.011Z,-2.06
2022-12-15T18:36:16.941Z,-2.07
2022-12-15T18:38:43.810Z,-2.19
2022-12-15T18:41:15.185Z,-2.11
2022-12-15T18:43:43.284Z,-2.15
2022-12-15T18:46:18.796Z,-2.16
2022-12-15T18:48:45.909Z,-2.22
2022-12-15T18:51:18.016Z,-2.22
2022-12-15T18:53:45.034Z,-2.37
2022-12-15T18:56:15.605Z,-2.33
2022-12-15T18:58:42.675Z,-2.39
2022-12-15T19:01:11.007Z,-2.63
2022-12-15T19:03:41.139Z,-2.58
2022-12-15T19:06:35.987Z,-2.38
2022-12-15T19:09:11.874Z,-2.39
2022-12-15T19:11:38.503Z,-2.62
2022-12-15T19:14:32.328Z,-2.34
2022-12-15T19:17:17.572Z,-2.30
2022-12-15T19:20:02.742Z,-2.42
2022-12-15T19:22:30.456Z,-2.38
2022-12-15T19:24:57.112Z,-2.18
2022-12-15T19:27:26.483Z,-2.15
2022-12-15T19:29:54.960Z,-2.23
2022-12-15T19:32:23.202Z,-2.26
2022-12-15T19:34:50.420Z,-2.07
2022-12-15T19:37:27.041Z,-2.19
2022-12-15T19:39:55.391Z,-2.15
2022-12-15T19:42:31.139Z,-2.38
2022-12-15T19:44:57.840Z,-2.05
2022-12-15T19:47:24.941Z,-2.09
2022-12-15T19:49:52.830Z,-2.19
2022-12-15T19:52:21.742Z,-2.11
2022-12-15T19:54:49.902Z,-1.98
2022-12-15T19:57:18.888Z,-1.93
2022-12-15T19:59:45.994Z,-1.82
2022-12-15T20:02:17.753Z,-1.76
2022-12-15T20:04:45.591Z,-1.78
2022-12-15T20:07:33.361Z,-1.62
2022-12-15T20:10:00.838Z,-1.53
2022-12-15T20:12:27.550Z,-1.55
2022-12-15T20:14:54.107Z,-1.73
2022-12-15T20:17:21.287Z,-1.65
2022-12-15T20:19:48.381Z,-1.78
2022-12-15T20:22:17.802Z,-1.69
2022-12-15T20:24:45.510Z,-1.69
2022-12-15T20:27:17.562Z,-1.68
2022-12-15T20:29:44.895Z,-1.76
2022-12-15T20:32:20.318Z,-1.64
2022-12-15T20:34:48.247Z,-1.69
2022-12-15T20:37:25.420Z,-1.59
2022-12-15T20:39:57.163Z,-1.57
2022-12-15T20:42:24.795Z,-1.67
2022-12-15T20:44:51.390Z,-1.55
2022-12-15T20:47:26.558Z,-1.46
2022-12-15T20:49:54.355Z,-1.42
2022-12-15T20:52:24.730Z,-1.48
2022-12-15T20:54:52.857Z,-1.45
2022-12-15T20:57:19.867Z,-1.58
2022-12-15T20:59:46.626Z,-1.20
2022-12-15T21:02:17.741Z,-1.07
2022-12-15T21:04:44.960Z,-1.05
2022-12-15T21:07:12.148Z,-1.03
2022-12-15T21:09:39.599Z,-0.98
2022-12-15T21:12:19.600Z,-1.22
2022-12-15T21:14:46.778Z,-1.00
2022-12-15T21:17:28.855Z,-1.02
2022-12-15T21:19:55.527Z,-1.12
2022-12-15T21:22:27.978Z,-1.08
2022-12-15T21:24:56.868Z,-1.21
2022-12-15T21:27:23.917Z,-1.14
2022-12-15T21:29:52.883Z,-1.11
2022-12-15T21:32:20.521Z,-1.12
2022-12-15T21:34:47.101Z,-1.12
2022-12-15T21:37:26.764Z,-1.15
2022-12-15T21:39:53.761Z,-1.13
2022-12-15T21:42:21.590Z,-1.15
2022-12-15T21:44:48.287Z,-1.11
2022-12-15T21:47:52.058Z,-1.09
2022-12-15T21:50:19.179Z,-1.12
2022-12-15T21:52:46.089Z,-1.15
2022-12-15T21:55:17.295Z,-1.17
2022-12-15T21:57:44.629Z,-1.21
2022-12-15T22:00:14.541Z,-1.27
2022-12-15T22:02:42.057Z,-1.41
2022-12-15T22:05:16.469Z,-1.39
2022-12-15T22:07:43.056Z,-1.40
2022-12-15T22:10:10.110Z,-1.38
2022-12-15T22:12:37.243Z,-1.39
2022-12-15T22:15:13.278Z,-1.46
2022-12-15T22:17:40.308Z,-1.46
2022-12-15T22:20:21.523Z,-1.43
2022-12-15T22:22:48.849Z,-1.53
2022-12-15T22:25:21.044Z,-1.52
2022-12-15T22:27:48.326Z,-1.56
2022-12-15T22:30:26.050Z,-1.55
2022-12-15T22:32:53.792Z,-1.56
2022-12-15T22:35:26.699Z,-1.64
2022-12-15T22:37:56.469Z,-1.64
2022-12-15T22:40:24.403Z,-1.67
2022-12-15T22:42:57.832Z,-1.76
2022-12-15T22:45:24.678Z,-1.65
2022-12-15T22:47:53.573Z,-1.76
2022-12-15T22:50:25.025Z,-1.73
2022-12-15T22:52:52.167Z,-1.68
2022-12-15T22:55:20.404Z,-1.72
2022-12-15T22:58:01.320Z,-1.76
2022-12-15T23:00:28.548Z,-1.82
2022-12-15T23:05:29.905Z,-1.86
2022-12-15T23:07:56.975Z,-2.00
2022-12-15T23:10:41.970Z,-1.95
2022-12-15T23:13:08.674Z,-2.02
2022-12-15T23:15:54.641Z,-2.08
2022-12-15T23:18:22.053Z,-2.14
2022-12-15T23:20:48.773Z,-2.17
2022-12-15T23:23:15.914Z,-2.25
2022-12-15T23:25:43.811Z,-2.23
2022-12-15T23:28:10.957Z,-2.24
2022-12-15T23:30:37.931Z,-2.25
2022-12-15T23:33:04.849Z,-2.63
2022-12-15T23:35:32.101Z,-2.36
2022-12-15T23:37:58.825Z,-2.66
2022-12-15T23:40:25.366Z,-2.34
2022-12-15T23:42:52.385Z,-2.45
2022-12-15T23:45:19.610Z,-2.36
2022-12-15T23:47:46.194Z,-2.39
2022-12-15T23:50:12.909Z,-2.38
2022-12-15T23:52:39.899Z,-2.45
2022-12-15T23:55:10.247Z,-2.42
2022-12-15T23:57:38.590Z,-2.42
